Airfield :
LOGIN :

Register | Disclaimer

   EN    FR    IT 

 










Legend :    VFR   Marginal VFR   IFR   Intensive IFR   Very Intensive IFR
Visi :
Ceiling :
>= 8 km
>= 3000ft
5 to 8 km
1000 to 3000 ft
1500m to 5 km
500 to 1000 ft
800 to 1500m
200 to 500 ft
< 800m
< 200 ft
Symbols :   Thunderstorms  Fog  Heavy snow  Heavy precipitations  Wind > 20 kt
SIGMETs :     Misc.  Thunderstorms  Icing  Turbulence  Mountain Waves  Volcanic Ashes







- Airport Elevation : 587 ft
- IATA code : XCR
- Download approach charts


LFOK - Chalons Vatry

CURRENT METAR :
  • 202200Z AUTO 33003KT CAVOK 15/11 Q1015 NOSIG

EXPIRED METARs :
  • 202130Z AUTO 32005KT CAVOK 15/12 Q1015 NOSIG
  • 202100Z AUTO 32006KT CAVOK 16/12 Q1015 NOSIG
  • 202030Z AUTO 32006KT CAVOK 16/12 Q1015 NOSIG
  • 202000Z AUTO 31006KT CAVOK 17/11 Q1014 NOSIG
  • 201930Z AUTO 23007KT CAVOK 17/09 Q1014 NOSIG

TAF TAF LFOK
Valid from the 20 at 18:00 until the 21 at 18:00 UTC


201700Z 2018/2118 25015KT 9999 BKN030
BECMG 2019/2022 VRB02KT
BECMG 2107/2110 20010KT
No reported NOTAMs for that airfield.



MET'MAP, your aeronautical weather chart ! - Copyright ORBIFLY December 2007 - Disclaimer

ORBIFLY MET'MAP TEAM :

Programming & Development : Alexandra Zaïnal
Concept & Development : Baudouin d'Aumeries
Co-Development & Prog : Marc-Olivier Méhu
Technical & hardware support : Manuel Goepfert

Contact : metmap@orbifly.com




SOURCES & CREDITS :

   NOAA